createdAt,value
2018-08-13T00:03:27.787Z,1.80
2018-08-13T00:08:31.588Z,2.20
2018-08-13T00:13:35.226Z,2.67
2018-08-13T00:18:38.886Z,3.43
2018-08-13T00:23:42.476Z,1.83
2018-08-13T00:28:46.287Z,4.90
2018-08-13T00:33:50.145Z,2.00
2018-08-13T00:38:53.693Z,2.03
2018-08-13T00:43:57.334Z,3.40
2018-08-13T00:49:05.994Z,3.47
2018-08-13T00:54:09.658Z,1.90
2018-08-13T00:59:13.214Z,3.47
2018-08-13T01:04:16.767Z,2.17
2018-08-13T01:09:20.398Z,2.30
2018-08-13T01:14:23.970Z,2.00
2018-08-13T01:19:27.549Z,2.27
2018-08-13T01:24:31.145Z,1.97
2018-08-13T01:29:35.134Z,3.17
2018-08-13T01:34:38.666Z,3.13
2018-08-13T01:39:42.300Z,4.13
2018-08-13T01:44:45.847Z,2.13
2018-08-13T01:49:54.374Z,2.43
2018-08-13T01:54:58.030Z,2.53
2018-08-13T02:00:01.906Z,3.50
2018-08-13T02:05:06.157Z,4.00
2018-08-13T02:10:12.424Z,2.33
2018-08-13T02:15:18.063Z,3.27
2018-08-13T02:20:21.661Z,2.40
2018-08-13T02:25:25.285Z,2.67
2018-08-13T02:30:28.934Z,2.13
2018-08-13T02:35:32.502Z,2.20
2018-08-13T02:40:36.118Z,2.07
2018-08-13T02:45:39.750Z,2.63
2018-08-13T02:50:43.316Z,2.33
2018-08-13T02:55:47.175Z,2.67
2018-08-13T03:00:50.834Z,3.30
2018-08-13T03:05:54.419Z,2.53
2018-08-13T03:10:58.271Z,3.23
2018-08-13T03:16:02.187Z,4.13
2018-08-13T03:21:05.804Z,4.90
2018-08-13T03:26:09.723Z,2.43
2018-08-13T03:31:13.454Z,2.17
2018-08-13T03:36:17.030Z,2.27
2018-08-13T03:41:20.605Z,2.20
2018-08-13T03:46:24.282Z,1.90
2018-08-13T03:51:27.834Z,1.90
2018-08-13T03:56:31.378Z,2.60
2018-08-13T04:01:35.139Z,5.00
2018-08-13T04:06:38.708Z,3.57
2018-08-13T04:11:42.279Z,4.60
2018-08-13T04:16:52.476Z,3.77
2018-08-13T04:21:56.474Z,2.33
2018-08-13T04:27:00.586Z,3.07
2018-08-13T04:32:04.299Z,3.77
2018-08-13T04:37:07.890Z,3.43
2018-08-13T04:42:11.450Z,2.60
2018-08-13T04:47:15.215Z,2.40
2018-08-13T04:52:18.910Z,3.00
2018-08-13T04:57:22.518Z,4.23
2018-08-13T05:02:26.230Z,6.10
2018-08-13T05:07:29.904Z,3.23
2018-08-13T05:12:33.449Z,5.67
2018-08-13T05:17:37.069Z,4.43
2018-08-13T05:22:40.732Z,3.80
2018-08-13T05:27:44.366Z,5.80
2018-08-13T05:32:48.002Z,4.97
2018-08-13T05:37:51.597Z,3.97
2018-08-13T05:42:55.231Z,5.90
2018-08-13T05:47:58.983Z,6.13
2018-08-13T05:53:02.635Z,6.47
2018-08-13T05:58:06.350Z,8.53
2018-08-13T06:03:10.087Z,8.03
2018-08-13T06:08:13.690Z,5.60
2018-08-13T06:13:17.368Z,9.73
2018-08-13T06:18:21.177Z,11.13
2018-08-13T06:23:24.794Z,6.50
2018-08-13T06:28:28.378Z,10.03
2018-08-13T06:33:32.613Z,5.47
2018-08-13T06:38:36.369Z,5.73
2018-08-13T06:43:40.038Z,3.80
2018-08-13T06:48:43.673Z,6.60
2018-08-13T06:53:47.267Z,8.20
2018-08-13T06:58:50.952Z,8.87
2018-08-13T07:03:54.759Z,6.07
2018-08-13T07:08:58.498Z,8.03
2018-08-13T07:14:02.135Z,8.07
2018-08-13T07:19:06.247Z,7.93
2018-08-13T07:24:09.861Z,6.83
2018-08-13T07:29:13.430Z,4.27
2018-08-13T07:34:17.183Z,3.90
2018-08-13T07:39:20.825Z,4.70
2018-08-13T07:44:24.514Z,5.17
2018-08-13T07:49:32.365Z,6.67
2018-08-13T07:54:36.050Z,3.93
2018-08-13T07:59:39.905Z,7.20
2018-08-13T08:04:43.494Z,4.63
2018-08-13T08:09:48.015Z,5.80
2018-08-13T08:14:51.646Z,4.43
2018-08-13T08:19:55.325Z,7.70
2018-08-13T08:24:58.914Z,7.73
2018-08-13T08:30:02.605Z,4.37
2018-08-13T08:35:07.883Z,7.43
2018-08-13T08:40:16.617Z,7.27
2018-08-13T08:45:25.965Z,6.93
2018-08-13T08:50:29.942Z,3.90
2018-08-13T08:55:33.605Z,5.93
2018-08-13T09:00:39.324Z,7.27
2018-08-13T09:05:43.049Z,6.80
2018-08-13T09:10:46.755Z,7.30
2018-08-13T09:15:50.366Z,7.97
2018-08-13T09:21:05.088Z,8.13
2018-08-13T09:26:20.255Z,7.40
2018-08-13T09:31:35.075Z,7.63
2018-08-13T09:36:38.746Z,7.53
2018-08-13T09:41:42.266Z,8.67
2018-08-13T09:46:50.942Z,8.53
2018-08-13T09:51:54.538Z,8.33
2018-08-13T09:56:58.258Z,7.83
2018-08-13T10:02:01.946Z,8.50
2018-08-13T10:07:10.882Z,10.50
2018-08-13T10:12:16.678Z,7.60
2018-08-13T10:17:20.306Z,7.20
2018-08-13T10:22:23.872Z,7.00
2018-08-13T10:27:27.490Z,7.70
2018-08-13T10:32:31.441Z,9.20
2018-08-13T10:37:35.348Z,8.03
2018-08-13T10:42:39.323Z,7.87
2018-08-13T10:47:42.976Z,7.80
2018-08-13T10:52:46.725Z,6.20
2018-08-13T10:57:50.395Z,7.33
2018-08-13T11:02:54.180Z,4.87
2018-08-13T11:07:57.759Z,4.40
2018-08-13T11:13:01.818Z,5.90
2018-08-13T11:18:05.616Z,5.20
2018-08-13T11:23:09.270Z,8.03
2018-08-13T11:28:15.205Z,5.63
2018-08-13T11:33:18.808Z,7.13
2018-08-13T11:38:22.528Z,6.63
2018-08-13T11:43:26.659Z,6.17
2018-08-13T11:48:30.379Z,5.80
2018-08-13T11:53:33.958Z,6.87
2018-08-13T11:58:37.533Z,7.57
2018-08-13T12:03:42.365Z,6.33
2018-08-13T12:08:45.969Z,6.47
2018-08-13T12:13:50.118Z,10.90
2018-08-13T12:18:53.834Z,6.60
2018-08-13T12:23:57.623Z,5.97
2018-08-13T12:29:01.265Z,5.43
2018-08-13T12:34:04.983Z,6.03
2018-08-13T12:39:11.095Z,5.90
2018-08-13T12:44:14.835Z,6.97
2018-08-13T12:49:18.595Z,6.07
2018-08-13T12:54:22.371Z,5.30
2018-08-13T12:59:26.001Z,6.07
2018-08-13T13:04:29.798Z,6.03
2018-08-13T13:09:33.873Z,4.83
2018-08-13T13:14:37.456Z,4.00
2018-08-13T13:19:41.014Z,3.43
2018-08-13T13:24:45.933Z,3.03
2018-08-13T13:29:49.643Z,5.40
2018-08-13T13:34:53.292Z,5.77
2018-08-13T13:39:56.988Z,3.13
2018-08-13T13:45:00.735Z,1.83
2018-08-13T13:50:14.278Z,1.80
2018-08-13T13:55:18.034Z,1.90
2018-08-13T14:00:22.144Z,11.10
2018-08-13T14:05:26.279Z,18.30
2018-08-13T14:10:29.923Z,2.80
2018-08-13T14:15:38.341Z,1.93
2018-08-13T14:20:43.916Z,2.40
2018-08-13T14:25:48.705Z,3.90
2018-08-13T14:30:52.499Z,4.50
2018-08-13T14:35:56.762Z,6.60
2018-08-13T14:41:00.991Z,3.50
2018-08-13T14:46:04.842Z,4.60
2018-08-13T14:51:09.098Z,3.07
2018-08-13T14:56:16.779Z,4.90
2018-08-13T15:01:21.129Z,4.87
2018-08-13T15:06:25.888Z,2.47
2018-08-13T15:11:34.808Z,2.97
2018-08-13T15:16:38.748Z,4.07
2018-08-13T15:21:42.840Z,1.90
2018-08-13T15:26:46.670Z,3.43
2018-08-13T15:31:50.266Z,3.13
2018-08-13T15:36:54.849Z,2.70
2018-08-13T15:41:58.576Z,4.23
2018-08-13T15:47:02.434Z,3.93
2018-08-13T15:52:06.387Z,2.03
2018-08-13T15:57:10.077Z,2.30
2018-08-13T16:02:14.725Z,2.10
2018-08-13T16:07:18.374Z,2.17
2018-08-13T16:12:22.375Z,2.90
2018-08-13T16:17:27.378Z,2.00
2018-08-13T16:22:31.022Z,2.97
2018-08-13T16:27:35.015Z,1.97
2018-08-13T16:32:38.653Z,2.60
2018-08-13T16:37:42.263Z,2.60
2018-08-13T16:42:46.286Z,1.63
2018-08-13T16:47:50.010Z,3.63
2018-08-13T16:52:53.983Z,1.90
2018-08-13T16:57:57.787Z,2.20
2018-08-13T17:03:01.662Z,2.33
2018-08-13T17:08:06.608Z,1.37
2018-08-13T17:13:10.540Z,1.70
2018-08-13T17:18:14.199Z,3.13
2018-08-13T17:23:17.907Z,1.30
2018-08-13T17:28:21.697Z,2.60
2018-08-13T17:33:25.386Z,3.60
2018-08-13T17:38:28.961Z,2.23
2018-08-13T17:43:32.650Z,1.70
2018-08-13T17:48:36.297Z,2.10
2018-08-13T17:53:40.071Z,2.47
2018-08-13T17:58:43.714Z,2.67
2018-08-13T18:03:47.359Z,2.03
2018-08-13T18:08:51.026Z,1.43
2018-08-13T18:13:54.857Z,2.20
2018-08-13T18:18:58.486Z,3.03
2018-08-13T18:24:02.715Z,1.43
2018-08-13T18:29:06.497Z,2.07
2018-08-13T18:34:10.228Z,1.90
2018-08-13T18:39:14.598Z,2.60
2018-08-13T18:44:18.577Z,1.40
2018-08-13T18:49:22.371Z,1.53
2018-08-13T18:54:26.050Z,2.60
2018-08-13T18:59:46.075Z,3.17
2018-08-13T19:04:50.762Z,1.47
2018-08-13T19:09:56.497Z,1.87
2018-08-13T19:15:00.100Z,2.67
2018-08-13T19:20:04.434Z,2.20
2018-08-13T19:25:14.302Z,1.60
2018-08-13T19:30:18.971Z,2.30
2018-08-13T19:35:22.590Z,2.43
2018-08-13T19:40:27.459Z,1.80
2018-08-13T19:45:31.327Z,3.00
2018-08-13T19:50:35.156Z,3.83
2018-08-13T19:55:38.810Z,3.50
2018-08-13T20:00:43.437Z,2.83
2018-08-13T20:05:47.508Z,2.47
2018-08-13T20:10:51.070Z,2.13
2018-08-13T20:15:54.886Z,2.93
2018-08-13T20:21:00.661Z,3.13
2018-08-13T20:26:04.311Z,4.00
2018-08-13T20:31:07.930Z,2.60
2018-08-13T20:36:11.507Z,1.90
2018-08-13T20:41:15.136Z,2.47
2018-08-13T20:46:19.022Z,1.93
2018-08-13T20:51:24.786Z,3.23
2018-08-13T20:56:28.516Z,2.30
2018-08-13T21:01:32.658Z,2.27
2018-08-13T21:06:36.296Z,1.90
2018-08-13T21:11:40.138Z,2.10
2018-08-13T21:16:49.494Z,2.90
2018-08-13T21:21:53.209Z,2.90
2018-08-13T21:26:56.847Z,2.30
2018-08-13T21:32:00.407Z,2.10
2018-08-13T21:37:08.030Z,3.33
2018-08-13T21:42:11.674Z,1.90
2018-08-13T21:47:15.809Z,2.60
2018-08-13T21:52:19.757Z,1.70
2018-08-13T21:57:24.698Z,3.17
2018-08-13T22:02:29.314Z,2.67
2018-08-13T22:07:33.046Z,2.43
2018-08-13T22:12:36.726Z,1.77
2018-08-13T22:17:41.463Z,3.77
2018-08-13T22:22:45.106Z,3.40
2018-08-13T22:27:48.811Z,2.83
2018-08-13T22:32:53.455Z,3.53
2018-08-13T22:37:57.111Z,1.73
2018-08-13T22:43:00.759Z,1.83
2018-08-13T22:48:04.682Z,2.97
2018-08-13T22:53:08.398Z,1.60
2018-08-13T22:58:12.238Z,2.20
2018-08-13T23:03:15.877Z,2.23
2018-08-13T23:08:19.640Z,2.00
2018-08-13T23:13:23.155Z,3.50
2018-08-13T23:18:26.958Z,2.77
2018-08-13T23:23:30.596Z,3.70
2018-08-13T23:28:34.327Z,2.47
2018-08-13T23:33:37.978Z,2.10
2018-08-13T23:38:41.556Z,2.33
2018-08-13T23:43:46.218Z,4.40
2018-08-13T23:48:49.946Z,2.63
2018-08-13T23:53:56.965Z,3.77
2018-08-13T23:59:00.498Z,5.47
